Time;durP1;ratioP1;P1;durP2;ratioP2;P2;SDS_P1;SDS_P2;PMS_P1;PMS_P2;Temp;Humidity;BMP_temperature;BMP_pressure;BME280_temperature;BME280_humidity;BME280_pressure;Samples;Min_cycle;Max_cycle;Signal;HPM_P1;HPM_P2
2022/10/18 04:00:54;;;;;;;13.23;6.57;;;14.50;99.90;;;;;;5717358;23;20491;-75
2022/10/18 04:03:22;;;;;;;17.33;6.70;;;14.50;99.90;;;;;;4911002;29;20505;-71
2022/10/18 04:05:50;;;;;;;11.27;6.33;;;14.50;99.90;;;;;;4909187;29;20470;-75
2022/10/18 04:08:17;;;;;;;21.00;6.73;;;14.50;99.90;;;;;;4909716;29;20478;-75
2022/10/18 04:10:44;;;;;;;9.13;6.10;;;14.50;99.90;;;;;;4909199;29;20494;-75
2022/10/18 04:13:11;;;;;;;8.67;6.00;;;14.60;99.90;;;;;;4909430;29;20463;-74
2022/10/18 04:15:38;;;;;;;11.40;7.00;;;14.50;99.90;;;;;;4909360;29;20471;-72
2022/10/18 04:18:06;;;;;;;16.53;6.70;;;14.50;99.90;;;;;;4910145;29;20474;-75
2022/10/18 04:20:33;;;;;;;15.30;5.70;;;14.60;99.90;;;;;;4907947;29;20479;-75
2022/10/18 04:23:00;;;;;;;10.77;6.60;;;14.60;99.90;;;;;;4909432;29;20486;-74
2022/10/18 04:25:28;;;;;;;9.40;6.33;;;14.60;99.90;;;;;;4908904;29;20464;-75
2022/10/18 04:27:55;;;;;;;13.63;6.40;;;14.70;99.90;;;;;;4909878;29;20503;-75
2022/10/18 04:30:21;;;;;;;13.50;6.40;;;14.60;99.90;;;;;;4908763;29;20470;-75
2022/10/18 04:32:48;;;;;;;13.93;6.53;;;14.60;99.90;;;;;;4909473;29;20463;-74
2022/10/18 04:35:16;;;;;;;11.53;6.50;;;14.60;99.90;;;;;;4909424;29;20467;-68
2022/10/18 04:37:43;;;;;;;11.73;6.80;;;14.70;99.90;;;;;;4908817;29;20911;-69
2022/10/18 04:40:11;;;;;;;9.30;6.60;;;14.60;99.90;;;;;;4909068;29;20475;-72
2022/10/18 04:42:37;;;;;;;13.23;6.53;;;14.60;99.90;;;;;;4909397;29;20474;-69
2022/10/18 04:45:05;;;;;;;12.97;7.40;;;14.60;99.90;;;;;;4909193;29;20470;-69
2022/10/18 04:47:34;;;;;;;8.77;6.87;;;14.60;99.90;;;;;;4909744;29;20470;-70
2022/10/18 04:50:01;;;;;;;12.73;6.90;;;14.60;99.90;;;;;;4908868;29;20463;-69
2022/10/18 04:52:29;;;;;;;14.97;7.60;;;14.70;99.90;;;;;;4909345;29;20490;-69
2022/10/18 04:54:56;;;;;;;10.70;7.43;;;14.70;99.90;;;;;;4908311;29;20952;-69
2022/10/18 04:57:23;;;;;;;13.27;7.60;;;14.70;99.90;;;;;;4909374;29;20463;-75
2022/10/18 04:59:49;;;;;;;14.60;7.63;;;14.70;99.90;;;;;;4911154;29;20955;-75
2022/10/18 05:02:16;;;;;;;17.47;7.53;;;14.60;99.90;;;;;;4913117;29;20494;-74
2022/10/18 05:04:43;;;;;;;11.30;6.40;;;14.70;99.90;;;;;;4912785;29;20507;-73
2022/10/18 05:07:13;;;;;;;13.40;7.37;;;14.70;99.90;;;;;;4912805;29;20459;-77
2022/10/18 05:09:41;;;;;;;19.87;8.03;;;14.70;99.90;;;;;;4911946;29;20467;-75
2022/10/18 05:12:08;;;;;;;11.03;6.23;;;14.70;99.90;;;;;;4912884;29;20486;-77
2022/10/18 05:14:34;;;;;;;13.83;7.00;;;14.70;99.90;;;;;;4912421;29;20466;-76
2022/10/18 05:17:01;;;;;;;14.43;7.97;;;14.70;99.90;;;;;;4913002;29;20467;-77
2022/10/18 05:19:28;;;;;;;16.23;7.27;;;14.70;99.90;;;;;;4910905;29;20470;-76
2022/10/18 05:21:55;;;;;;;12.93;6.97;;;14.70;99.90;;;;;;4912845;29;20567;-77
2022/10/18 05:24:21;;;;;;;17.60;7.30;;;14.70;99.90;;;;;;4912228;29;20499;-77
2022/10/18 05:26:50;;;;;;;11.80;7.30;;;14.70;99.90;;;;;;4912426;29;20458;-75
2022/10/18 05:29:16;;;;;;;12.90;7.80;;;14.70;99.90;;;;;;4912546;29;20466;-77
2022/10/18 05:31:43;;;;;;;14.90;7.00;;;14.70;99.90;;;;;;4912551;29;20491;-74
2022/10/18 05:34:10;;;;;;;12.17;7.47;;;14.70;99.90;;;;;;4911739;29;20463;-77
2022/10/18 05:36:36;;;;;;;17.47;7.80;;;14.70;99.90;;;;;;4912684;29;20498;-76
2022/10/18 05:39:04;;;;;;;18.93;8.07;;;14.80;99.90;;;;;;4912512;29;20466;-76
2022/10/18 05:41:31;;;;;;;11.73;6.80;;;14.70;99.90;;;;;;4912531;29;20479;-77
2022/10/18 05:44:02;;;;;;;10.23;7.20;;;14.70;99.90;;;;;;4911962;29;20862;-75
2022/10/18 05:46:29;;;;;;;14.07;6.53;;;14.80;99.90;;;;;;4911462;29;20463;-77
2022/10/18 05:48:58;;;;;;;14.77;7.77;;;14.80;99.90;;;;;;4912119;29;20461;-77
2022/10/18 05:51:28;;;;;;;14.63;7.00;;;14.80;99.90;;;;;;4911556;29;20471;-76
2022/10/18 05:53:57;;;;;;;10.83;6.87;;;14.80;99.90;;;;;;4911595;29;20455;-76
2022/10/18 05:56:24;;;;;;;11.77;7.47;;;14.80;99.90;;;;;;4912101;29;20511;-76
2022/10/18 05:58:52;;;;;;;16.10;7.43;;;14.80;99.90;;;;;;4912088;29;20947;-74
2022/10/18 06:01:20;;;;;;;14.13;6.33;;;14.80;99.90;;;;;;4912446;29;21071;-75
2022/10/18 06:03:47;;;;;;;13.77;6.97;;;14.80;99.90;;;;;;4911055;29;20503;-75
2022/10/18 06:06:15;;;;;;;21.73;6.20;;;14.80;99.90;;;;;;4911452;29;20443;-74
2022/10/18 06:08:43;;;;;;;12.17;6.57;;;14.80;99.90;;;;;;4912000;29;20460;-75
2022/10/18 06:11:11;;;;;;;10.30;6.67;;;14.80;99.90;;;;;;4910945;29;20486;-74
2022/10/18 06:13:41;;;;;;;11.57;6.40;;;14.70;99.90;;;;;;4911810;29;20459;-74
2022/10/18 06:16:09;;;;;;;14.93;6.70;;;14.80;99.90;;;;;;4911066;29;20960;-73
2022/10/18 06:18:37;;;;;;;12.93;6.47;;;14.70;99.90;;;;;;4911746;29;20463;-73
2022/10/18 06:21:04;;;;;;;11.13;6.73;;;14.80;99.90;;;;;;4912114;29;20491;-74
2022/10/18 06:23:31;;;;;;;12.90;6.43;;;14.70;99.90;;;;;;4911253;29;20491;-75
2022/10/18 06:25:59;;;;;;;15.67;7.30;;;14.70;99.90;;;;;;4910748;29;20473;-73
2022/10/18 06:28:27;;;;;;;15.53;7.27;;;14.70;99.90;;;;;;4911658;29;20557;-73
2022/10/18 06:30:53;;;;;;;12.63;7.70;;;14.70;99.90;;;;;;4911910;29;20482;-75
2022/10/18 06:33:20;;;;;;;10.60;7.27;;;14.70;99.90;;;;;;4911594;29;20463;-73
2022/10/18 06:35:56;;;;;;;10.80;7.30;;;14.80;99.90;;;;;;4911008;29;20475;-75
2022/10/18 06:38:23;;;;;;;9.60;7.50;;;14.70;99.90;;;;;;4911714;29;20447;-74
2022/10/18 06:40:50;;;;;;;10.30;7.10;;;14.70;99.90;;;;;;4911271;29;20486;-74
2022/10/18 06:43:16;;;;;;;15.53;7.10;;;14.70;99.90;;;;;;4911247;29;20582;-72
2022/10/18 06:45:43;;;;;;;11.63;6.87;;;14.80;99.90;;;;;;4911040;29;20455;-77
2022/10/18 06:48:10;;;;;;;12.60;7.77;;;14.80;99.90;;;;;;4911502;29;20467;-75
2022/10/18 06:50:37;;;;;;;17.50;7.33;;;14.80;99.90;;;;;;4911124;29;20486;-75
2022/10/18 06:53:07;;;;;;;15.30;7.83;;;14.80;99.90;;;;;;4911389;29;20463;-75
2022/10/18 06:55:34;;;;;;;11.50;7.43;;;14.90;99.90;;;;;;4910297;29;21016;-72
2022/10/18 06:58:01;;;;;;;12.10;7.30;;;14.90;99.90;;;;;;4911138;29;20459;-75
2022/10/18 07:00:28;;;;;;;17.57;7.40;;;14.90;99.90;;;;;;4910560;29;20836;-75
2022/10/18 07:02:56;;;;;;;11.73;6.60;;;14.90;99.90;;;;;;4909680;29;20950;-76
2022/10/18 07:05:23;;;;;;;9.43;6.80;;;15.00;99.90;;;;;;4910610;29;20629;-72
2022/10/18 07:07:49;;;;;;;15.37;7.30;;;15.00;99.90;;;;;;4910955;29;21273;-74
2022/10/18 07:10:17;;;;;;;18.60;8.03;;;15.00;99.90;;;;;;4910600;29;20467;-75
2022/10/18 07:12:44;;;;;;;10.57;6.80;;;15.00;99.90;;;;;;4910935;29;20466;-75
2022/10/18 07:15:11;;;;;;;14.10;7.20;;;15.00;99.90;;;;;;4910360;29;20470;-75
2022/10/18 07:17:38;;;;;;;15.73;7.40;;;15.00;99.90;;;;;;4910914;29;20494;-74
2022/10/18 07:20:05;;;;;;;12.23;6.90;;;15.10;99.90;;;;;;4910641;29;20473;-75
2022/10/18 07:22:32;;;;;;;16.27;7.50;;;15.10;99.90;;;;;;4910143;29;20894;-75
2022/10/18 07:24:59;;;;;;;13.50;7.47;;;15.10;99.90;;;;;;4910169;29;20945;-76
2022/10/18 07:27:27;;;;;;;13.63;7.70;;;15.20;99.90;;;;;;4910776;29;20474;-74
2022/10/18 07:29:54;;;;;;;15.03;7.60;;;15.30;99.90;;;;;;4910487;29;20467;-75
2022/10/18 07:32:21;;;;;;;11.43;7.83;;;15.30;99.90;;;;;;4910506;29;20496;-75
2022/10/18 07:34:48;;;;;;;10.50;7.40;;;15.30;99.90;;;;;;4909974;29;20459;-75
2022/10/18 07:37:14;;;;;;;11.67;7.40;;;15.40;99.90;;;;;;4910522;29;20471;-73
2022/10/18 07:39:41;;;;;;;13.33;6.80;;;15.40;99.90;;;;;;4910375;29;20459;-72
2022/10/18 07:42:08;;;;;;;22.67;7.63;;;15.40;99.90;;;;;;4910703;29;20490;-75
2022/10/18 07:44:36;;;;;;;16.87;7.97;;;15.40;99.90;;;;;;4909798;29;20495;-75
2022/10/18 07:47:03;;;;;;;12.00;6.70;;;15.50;99.90;;;;;;4910614;29;20554;-75
2022/10/18 07:49:29;;;;;;;12.00;6.70;;;15.50;99.90;;;;;;4910257;29;20470;-75
2022/10/18 07:51:56;;;;;;;13.70;5.90;;;15.60;99.90;;;;;;4910363;29;20483;-74
2022/10/18 07:54:23;;;;;;;12.50;7.17;;;15.60;99.90;;;;;;4909215;29;20456;-73
2022/10/18 07:56:50;;;;;;;10.73;7.10;;;15.70;99.90;;;;;;4910028;29;20463;-74
2022/10/18 07:59:17;;;;;;;10.50;7.40;;;15.70;99.90;;;;;;4910568;29;20467;-75
2022/10/18 08:01:45;;;;;;;11.70;7.60;;;15.80;99.90;;;;;;4909850;29;20517;-75
2022/10/18 08:04:11;;;;;;;19.80;7.87;;;15.80;99.90;;;;;;4907673;29;20495;-75
2022/10/18 08:06:38;;;;;;;13.00;6.97;;;15.80;99.90;;;;;;4909792;29;20970;-75
2022/10/18 08:09:05;;;;;;;11.57;6.90;;;15.80;99.90;;;;;;4909956;29;20808;-75
2022/10/18 08:11:32;;;;;;;12.57;6.73;;;15.90;99.90;;;;;;4909637;29;20479;-75
2022/10/18 08:13:59;;;;;;;14.10;7.50;;;15.90;99.90;;;;;;4909442;29;20486;-76
2022/10/18 08:16:28;;;;;;;11.40;7.30;;;16.00;99.90;;;;;;4909887;29;20467;-75
2022/10/18 08:18:57;;;;;;;11.10;8.10;;;16.10;99.90;;;;;;4910067;29;20463;-75
2022/10/18 08:21:25;;;;;;;16.57;7.27;;;16.20;99.90;;;;;;4909831;29;20483;-75
2022/10/18 08:23:53;;;;;;;13.00;7.37;;;16.20;99.90;;;;;;4909598;29;21033;-75
2022/10/18 08:26:23;;;;;;;13.73;7.77;;;16.20;99.90;;;;;;4909449;29;20562;-75
2022/10/18 08:28:50;;;;;;;13.50;7.30;;;16.30;99.90;;;;;;4909405;29;20459;-75
2022/10/18 08:31:18;;;;;;;18.90;7.60;;;16.40;99.90;;;;;;4909228;29;20483;-76
2022/10/18 08:33:46;;;;;;;9.23;6.30;;;16.40;99.90;;;;;;4908969;29;20960;-75
2022/10/18 08:36:16;;;;;;;8.20;5.20;;;16.50;99.90;;;;;;4908798;29;20455;-74
2022/10/18 08:38:43;;;;;;;11.43;6.27;;;16.60;99.90;;;;;;4909351;29;20459;-75
2022/10/18 08:41:32;;;;;;;9.10;5.53;;;16.70;99.90;;;;;;4909767;29;20483;-75
2022/10/18 08:44:07;;;;;;;15.37;7.43;;;16.80;99.90;;;;;;4909116;29;20495;-75
2022/10/18 08:46:36;;;;;;;8.80;5.17;;;16.90;99.90;;;;;;4909366;29;20461;-74
2022/10/18 08:49:04;;;;;;;14.10;5.20;;;17.10;99.90;;;;;;4909529;29;20463;-75
2022/10/18 08:51:39;;;;;;;10.37;5.03;;;17.20;99.90;;;;;;4909423;29;20861;-74
2022/10/18 08:54:10;;;;;;;14.07;4.10;;;17.30;99.90;;;;;;4908730;29;20924;-75
2022/10/18 08:56:39;;;;;;;7.07;4.33;;;17.40;99.90;;;;;;4909637;29;20463;-75
2022/10/18 08:59:09;;;;;;;9.10;4.80;;;17.50;99.90;;;;;;4909261;29;20466;-75
2022/10/18 09:01:43;;;;;;;6.77;4.50;;;17.50;99.90;;;;;;4909628;29;20499;-74
2022/10/18 09:04:29;;;;;;;15.67;4.57;;;17.60;99.90;;;;;;4907247;29;20479;-75
2022/10/18 09:07:15;;;;;;;11.27;4.70;;;17.70;99.90;;;;;;4909708;29;20799;-75
2022/10/18 09:09:47;;;;;;;8.90;4.70;;;17.80;99.90;;;;;;4909598;29;20482;-74
2022/10/18 09:12:34;;;;;;;12.77;4.53;;;17.80;99.90;;;;;;4909393;29;20502;-73
2022/10/18 09:15:10;;;;;;;13.20;5.27;;;17.90;99.90;;;;;;4908643;29;20476;-75
2022/10/18 09:17:50;;;;;;;7.73;5.00;;;17.90;99.90;;;;;;4908888;29;20844;-75
2022/10/18 09:20:23;;;;;;;11.80;4.70;;;18.00;99.90;;;;;;4909292;29;20451;-75
2022/10/18 09:22:56;;;;;;;11.87;4.80;;;18.10;99.90;;;;;;4909215;29;20996;-74
2022/10/18 09:25:25;;;;;;;7.33;4.13;;;18.20;99.90;;;;;;4907921;29;20475;-75
2022/10/18 09:27:54;;;;;;;13.60;6.50;;;18.20;99.90;;;;;;4909337;29;20463;-73
2022/10/18 09:30:32;;;;;;;8.40;4.37;;;18.30;99.90;;;;;;4909166;29;20470;-75
2022/10/18 09:33:06;;;;;;;7.20;4.23;;;18.40;99.90;;;;;;4908970;29;20829;-75
2022/10/18 09:35:42;;;;;;;7.70;4.80;;;18.50;99.90;;;;;;4908091;29;20458;-71
2022/10/18 09:38:13;;;;;;;9.70;4.30;;;18.50;99.90;;;;;;4908674;29;20502;-74
2022/10/18 09:40:48;;;;;;;6.60;4.60;;;18.70;99.90;;;;;;4909229;29;20479;-74
2022/10/18 09:43:20;;;;;;;6.73;4.50;;;18.80;99.90;;;;;;4909392;29;20446;-74
2022/10/18 09:45:48;;;;;;;6.77;3.80;;;19.00;99.90;;;;;;4909855;29;20494;-73
2022/10/18 09:48:21;;;;;;;7.63;4.10;;;19.10;99.90;;;;;;4912076;29;20455;-75
2022/10/18 09:50:54;;;;;;;7.43;4.47;;;19.10;99.90;;;;;;4912627;29;20479;-75
2022/10/18 09:53:32;;;;;;;6.93;4.10;;;19.20;99.90;;;;;;4912652;29;20451;-74
2022/10/18 09:56:02;;;;;;;7.90;3.60;;;19.20;99.90;;;;;;4911748;29;20912;-74
2022/10/18 09:58:41;;;;;;;7.73;4.03;;;19.30;99.90;;;;;;4912159;29;20466;-75
2022/10/18 10:01:09;;;;;;;8.30;4.40;;;19.40;99.90;;;;;;4912382;29;20639;-74
2022/10/18 10:03:36;;;;;;;11.30;4.13;;;19.50;99.90;;;;;;4910636;29;20470;-75
2022/10/18 10:06:23;;;;;;;8.60;3.60;;;19.50;99.90;;;;;;4911677;29;20478;-75
2022/10/18 10:08:58;;;;;;;8.30;3.90;;;19.60;99.90;;;;;;4912348;29;20498;-75
2022/10/18 10:11:35;;;;;;;8.40;4.00;;;19.60;99.90;;;;;;4911615;29;20482;-76
2022/10/18 10:14:12;;;;;;;7.23;4.10;;;19.60;99.90;;;;;;4911514;29;20463;-75
2022/10/18 10:16:51;;;;;;;11.97;4.43;;;19.70;99.90;;;;;;4912140;29;20466;-75
2022/10/18 10:19:21;;;;;;;9.70;3.80;;;19.80;99.90;;;;;;4911876;29;20454;-75
2022/10/18 10:21:49;;;;;;;7.73;4.30;;;19.90;99.90;;;;;;4911884;29;20487;-75
2022/10/18 10:24:24;;;;;;;7.67;4.17;;;20.00;99.90;;;;;;4911148;29;20469;-74
2022/10/18 10:26:58;;;;;;;8.63;3.60;;;20.20;99.90;;;;;;4910250;29;20510;-75
2022/10/18 10:29:50;;;;;;;9.00;3.57;;;20.30;99.90;;;;;;4910991;29;20593;-75
2022/10/18 10:32:19;;;;;;;9.33;3.60;;;20.40;99.90;;;;;;4910621;29;20632;-75
2022/10/18 10:34:46;;;;;;;6.57;3.87;;;20.50;99.90;;;;;;4909966;29;20467;-74
2022/10/18 10:37:28;;;;;;;7.80;4.80;;;20.60;99.90;;;;;;4910371;29;20842;-75
2022/10/18 10:40:18;;;;;;;4.90;3.70;;;20.60;99.90;;;;;;4910420;29;20799;-74
2022/10/18 10:43:07;;;;;;;13.53;3.97;;;20.60;99.90;;;;;;4910595;29;20598;-75
2022/10/18 10:45:37;;;;;;;7.33;3.60;;;20.60;99.90;;;;;;4909920;29;20850;-75
2022/10/18 10:48:08;;;;;;;11.17;3.77;;;20.70;99.90;;;;;;4910170;29;20835;-75
2022/10/18 10:50:53;;;;;;;14.17;4.97;;;20.90;99.90;;;;;;4910118;29;20479;-75
2022/10/18 10:53:45;;;;;;;7.80;4.13;;;21.20;99.90;;;;;;4908957;29;20444;-70
2022/10/18 10:56:27;;;;;;;9.00;3.50;;;21.30;99.90;;;;;;4891664;29;20995;-77
2022/10/18 10:58:57;;;;;;;6.60;3.73;;;21.30;99.90;;;;;;4910663;29;20538;-74
2022/10/18 11:01:28;;;;;;;6.60;3.63;;;21.40;99.90;;;;;;4910444;29;20483;-75
2022/10/18 11:03:56;;;;;;;7.30;4.30;;;21.50;99.90;;;;;;4911110;29;20451;-77
2022/10/18 11:06:46;;;;;;;5.47;3.53;;;21.60;99.90;;;;;;4910640;29;20495;-76
2022/10/18 11:09:25;;;;;;;12.20;4.10;;;21.70;99.90;;;;;;4911323;29;20463;-76
2022/10/18 11:12:01;;;;;;;11.13;3.90;;;21.60;99.90;;;;;;4911713;29;21266;-77
2022/10/18 11:14:31;;;;;;;6.33;3.70;;;21.70;99.90;;;;;;4910711;29;20463;-76
2022/10/18 11:17:07;;;;;;;9.43;4.00;;;21.70;99.90;;;;;;4911355;29;20463;-73
2022/10/18 11:19:40;;;;;;;11.87;4.03;;;21.70;99.90;;;;;;4911215;29;20556;-75
2022/10/18 11:22:12;;;;;;;9.50;3.70;;;21.80;99.90;;;;;;4911145;29;20486;-73
2022/10/18 11:24:39;;;;;;;6.57;3.70;;;21.90;99.90;;;;;;4910075;29;20987;-77
2022/10/18 11:27:13;;;;;;;4.80;3.53;;;21.90;99.90;;;;;;4911557;29;21031;-74
2022/10/18 11:29:53;;;;;;;7.23;4.00;;;22.00;99.90;;;;;;4911473;29;20459;-77
2022/10/18 11:32:27;;;;;;;11.43;4.10;;;22.00;99.90;;;;;;4910855;29;20494;-77
2022/10/18 11:35:10;;;;;;;9.37;3.53;;;22.10;99.90;;;;;;4910423;29;20454;-73
2022/10/18 11:37:56;;;;;;;9.07;3.60;;;22.30;99.90;;;;;;4911011;29;20448;-77
2022/10/18 11:40:44;;;;;;;8.00;3.90;;;22.30;99.90;;;;;;4911081;29;20463;-77
2022/10/18 11:43:20;;;;;;;6.13;3.67;;;22.30;99.90;;;;;;4911300;29;20463;-76
2022/10/18 11:45:54;;;;;;;6.50;3.77;;;22.30;99.90;;;;;;4910381;29;20498;-72
2022/10/18 11:48:44;;;;;;;8.40;3.63;;;22.20;99.90;;;;;;4910326;29;20451;-74
2022/10/18 11:51:20;;;;;;;9.03;3.53;;;22.20;99.90;;;;;;4909873;29;20482;-73
2022/10/18 11:54:08;;;;;;;9.00;3.40;;;22.10;99.90;;;;;;4909892;29;20814;-73
2022/10/18 11:56:44;;;;;;;7.50;3.70;;;22.10;99.90;;;;;;4909859;29;21560;-75
2022/10/18 11:59:28;;;;;;;8.90;4.03;;;22.10;99.90;;;;;;4910250;29;20466;-73
2022/10/18 12:02:03;;;;;;;6.47;3.40;;;22.10;99.90;;;;;;4909997;29;20501;-73
2022/10/18 12:04:35;;;;;;;8.23;3.40;;;22.10;99.90;;;;;;4909502;29;20454;-74
2022/10/18 12:07:05;;;;;;;9.13;3.90;;;22.10;99.90;;;;;;4910476;29;20488;-74
2022/10/18 12:09:37;;;;;;;7.50;3.93;;;22.10;99.90;;;;;;4908709;29;21001;-73
2022/10/18 12:12:09;;;;;;;13.30;4.47;;;22.10;99.90;;;;;;4909590;29;20494;-72
2022/10/18 12:14:41;;;;;;;5.77;3.80;;;22.00;99.90;;;;;;4909203;29;20983;-72
2022/10/18 12:17:17;;;;;;;9.33;4.27;;;22.00;99.90;;;;;;4910145;29;20467;-73
2022/10/18 12:19:45;;;;;;;6.37;3.40;;;21.90;99.90;;;;;;4909906;29;20471;-73
2022/10/18 12:22:18;;;;;;;5.17;3.80;;;21.80;99.90;;;;;;4909813;29;20494;-73
2022/10/18 12:24:45;;;;;;;9.87;4.13;;;21.70;99.90;;;;;;4909030;29;20454;-73
2022/10/18 12:27:14;;;;;;;7.87;4.17;;;21.60;99.90;;;;;;4909468;29;20463;-72
2022/10/18 12:29:49;;;;;;;11.20;4.73;;;21.40;99.90;;;;;;4909784;29;20470;-76
2022/10/18 12:32:20;;;;;;;5.60;3.50;;;21.40;99.90;;;;;;4912633;29;20518;-75
2022/10/18 12:34:51;;;;;;;6.07;4.10;;;21.30;99.90;;;;;;4912873;29;20474;-77
2022/10/18 12:37:40;;;;;;;7.90;3.73;;;21.30;99.90;;;;;;4911407;29;21013;-77
2022/10/18 12:40:13;;;;;;;6.30;4.27;;;21.40;99.90;;;;;;4909201;29;20464;-76
2022/10/18 12:42:45;;;;;;;6.17;4.07;;;21.60;99.90;;;;;;4910077;29;20452;-77
2022/10/18 12:45:27;;;;;;;6.27;3.93;;;21.80;99.90;;;;;;4909108;29;20875;-76
2022/10/18 12:47:55;;;;;;;6.43;3.27;;;21.90;99.90;;;;;;4909099;29;20448;-76
2022/10/18 12:50:30;;;;;;;6.93;3.60;;;22.10;99.90;;;;;;4908817;29;20495;-77
2022/10/18 12:53:19;;;;;;;5.27;3.13;;;22.30;99.90;;;;;;4909791;29;20526;-77
2022/10/18 12:55:47;;;;;;;4.07;3.67;;;22.30;99.90;;;;;;4903110;29;20471;-76
2022/10/18 12:58:30;;;;;;;5.03;2.77;;;22.30;99.90;;;;;;4909687;29;20459;-75
2022/10/18 13:01:07;;;;;;;5.20;4.17;;;22.50;99.90;;;;;;4909189;29;20494;-77
2022/10/18 13:04:01;;;;;;;11.00;3.60;;;22.40;99.90;;;;;;4908292;29;20954;-73
2022/10/18 13:07:11;;;;;;;5.83;3.03;;;22.40;99.90;;;;;;4908664;29;20499;-77
2022/10/18 13:09:39;;;;;;;3.87;3.10;;;22.40;99.90;;;;;;4909264;29;20463;-75
2022/10/18 13:12:47;;;;;;;4.20;2.87;;;22.40;99.90;;;;;;4909044;29;20491;-76
2022/10/18 13:15:34;;;;;;;3.43;2.50;;;22.30;99.90;;;;;;4908589;29;20451;-77
2022/10/18 13:18:14;;;;;;;5.53;2.40;;;22.10;99.90;;;;;;4908009;29;20471;-77
2022/10/18 13:20:47;;;;;;;6.30;2.60;;;22.00;99.90;;;;;;4911735;29;20479;-77
2022/10/18 13:23:32;;;;;;;4.00;2.60;;;21.90;99.90;;;;;;4913639;29;20443;-76
2022/10/18 13:26:13;;;;;;;4.70;3.10;;;22.00;99.90;;;;;;4913877;29;20495;-76
2022/10/18 13:28:47;;;;;;;4.10;3.07;;;22.10;99.90;;;;;;4914027;29;21003;-73
2022/10/18 13:31:20;;;;;;;3.70;2.80;;;22.10;99.90;;;;;;4913467;29;20850;-77
2022/10/18 13:33:49;;;;;;;3.77;3.00;;;22.20;99.90;;;;;;4913278;29;21040;-76
2022/10/18 13:36:24;;;;;;;4.77;2.77;;;22.30;99.90;;;;;;4912821;29;20457;-76
2022/10/18 13:39:05;;;;;;;5.83;2.97;;;22.20;99.90;;;;;;4913338;29;20458;-76
2022/10/18 13:42:10;;;;;;;4.63;2.93;;;22.20;99.90;;;;;;4913523;29;20908;-77
2022/10/18 13:44:38;;;;;;;5.60;3.40;;;22.00;99.90;;;;;;4913140;29;20567;-75
2022/10/18 13:47:11;;;;;;;3.83;3.13;;;22.00;99.90;;;;;;4912936;29;20499;-76
2022/10/18 13:50:03;;;;;;;4.80;2.97;;;21.90;99.90;;;;;;4913351;29;20455;-76
2022/10/18 13:52:44;;;;;;;5.60;3.00;;;21.80;99.90;;;;;;4913541;29;20498;-76
2022/10/18 13:55:32;;;;;;;5.57;2.83;;;21.70;99.90;;;;;;4912177;29;20457;-75
2022/10/18 13:58:07;;;;;;;3.13;2.63;;;21.70;99.90;;;;;;4912366;29;20451;-74
2022/10/18 14:00:47;;;;;;;5.73;2.90;;;21.70;99.90;;;;;;4912294;29;20482;-75
2022/10/18 14:03:35;;;;;;;5.93;2.90;;;21.70;99.90;;;;;;4912435;29;20796;-75
2022/10/18 14:06:08;;;;;;;3.10;2.40;;;21.70;99.90;;;;;;4911516;29;20506;-75
2022/10/18 14:08:38;;;;;;;3.17;2.57;;;21.90;99.90;;;;;;4912407;29;20448;-76
2022/10/18 14:11:07;;;;;;;4.33;2.63;;;22.00;99.90;;;;;;4912928;29;20479;-77
2022/10/18 14:13:41;;;;;;;5.33;2.70;;;22.00;99.90;;;;;;4912692;29;20462;-75
2022/10/18 14:16:25;;;;;;;2.57;2.20;;;21.90;99.90;;;;;;4912436;29;20451;-76
2022/10/18 14:18:56;;;;;;;3.30;2.93;;;22.00;99.90;;;;;;4913159;29;20451;-73
2022/10/18 14:21:31;;;;;;;4.73;3.00;;;22.10;99.90;;;;;;4912459;29;20490;-77
2022/10/18 14:23:59;;;;;;;3.60;2.53;;;22.20;99.90;;;;;;4913801;29;20466;-76
2022/10/18 14:26:27;;;;;;;5.33;2.80;;;22.30;99.90;;;;;;4913854;29;20499;-77
2022/10/18 14:29:05;;;;;;;5.20;3.10;;;22.30;99.90;;;;;;4913281;29;20566;-77
2022/10/18 14:31:32;;;;;;;4.93;2.77;;;22.30;99.90;;;;;;4912235;29;20487;-76
2022/10/18 14:34:00;;;;;;;3.23;2.80;;;22.40;99.90;;;;;;4912612;29;20471;-77
2022/10/18 14:36:35;;;;;;;5.40;3.00;;;22.60;99.90;;;;;;4912760;29;20544;-77
2022/10/18 14:39:04;;;;;;;3.33;2.90;;;22.60;99.90;;;;;;4914236;29;20454;-77
2022/10/18 14:41:33;;;;;;;5.00;3.10;;;22.60;99.90;;;;;;4914136;29;21010;-77
2022/10/18 14:44:18;;;;;;;5.23;3.50;;;22.50;99.90;;;;;;4912979;29;20474;-75
2022/10/18 14:46:46;;;;;;;5.00;3.10;;;22.30;99.90;;;;;;4914284;29;20494;-77
2022/10/18 14:49:14;;;;;;;5.60;3.60;;;22.30;99.90;;;;;;4913971;29;20459;-77
2022/10/18 14:51:44;;;;;;;6.43;3.27;;;22.20;99.90;;;;;;4913364;29;20510;-76
2022/10/18 14:54:15;;;;;;;9.70;3.10;;;22.00;99.90;;;;;;4912259;29;20443;-76
2022/10/18 14:56:43;;;;;;;3.63;3.33;;;21.80;99.90;;;;;;4912834;29;20452;-75
2022/10/18 14:59:17;;;;;;;5.50;3.77;;;21.70;99.90;;;;;;4911578;29;20463;-77
2022/10/18 15:01:53;;;;;;;6.20;3.50;;;21.60;99.90;;;;;;4911053;29;20498;-76
2022/10/18 15:04:20;;;;;;;6.37;3.70;;;21.60;99.90;;;;;;4911038;29;20461;-77
2022/10/18 15:06:49;;;;;;;5.07;3.43;;;21.60;99.90;;;;;;4912290;29;20507;-77
2022/10/18 15:09:21;;;;;;;3.57;3.20;;;21.60;99.90;;;;;;4912287;29;20467;-76
2022/10/18 15:11:49;;;;;;;7.43;3.93;;;21.50;99.90;;;;;;4912196;29;20490;-76
2022/10/18 15:14:19;;;;;;;4.97;3.40;;;21.60;99.90;;;;;;4911648;29;20463;-77
2022/10/18 15:16:47;;;;;;;6.67;3.30;;;21.50;99.90;;;;;;4910725;29;20999;-77
2022/10/18 15:19:29;;;;;;;5.40;3.77;;;21.50;99.90;;;;;;4910627;29;20459;-77
2022/10/18 15:21:59;;;;;;;6.13;3.80;;;21.40;99.90;;;;;;4911496;29;20479;-76
2022/10/18 15:24:32;;;;;;;5.53;3.77;;;21.30;99.90;;;;;;4910516;29;20819;-75
2022/10/18 15:27:13;;;;;;;6.50;3.60;;;21.20;99.90;;;;;;4910676;29;20804;-77
2022/10/18 15:29:42;;;;;;;5.03;3.60;;;21.20;99.90;;;;;;4910558;29;20458;-77
2022/10/18 15:32:16;;;;;;;4.53;3.70;;;21.10;99.90;;;;;;4910527;29;20482;-76
2022/10/18 15:34:43;;;;;;;4.53;3.60;;;21.10;99.90;;;;;;4911092;29;20462;-76
2022/10/18 15:37:31;;;;;;;5.77;4.10;;;21.10;99.90;;;;;;4911459;29;20463;-77
2022/10/18 15:40:37;;;;;;;9.40;4.20;;;21.00;99.90;;;;;;4910530;29;20467;-77
2022/10/18 15:43:06;;;;;;;4.30;3.90;;;21.10;99.90;;;;;;4910298;29;20466;-77
2022/10/18 15:45:36;;;;;;;7.40;3.97;;;21.10;99.90;;;;;;4909544;29;20466;-77
2022/10/18 15:48:19;;;;;;;5.70;3.60;;;21.00;99.90;;;;;;4910101;29;20904;-76
2022/10/18 15:50:47;;;;;;;6.30;3.93;;;21.00;99.90;;;;;;4910044;29;20479;-77
2022/10/18 15:53:40;;;;;;;4.57;4.17;;;21.00;99.90;;;;;;4910327;29;20847;-77
2022/10/18 15:56:10;;;;;;;5.10;3.67;;;21.00;99.90;;;;;;4909895;29;20463;-76
2022/10/18 15:58:40;;;;;;;5.57;4.40;;;21.00;99.90;;;;;;4910676;29;20629;-77
2022/10/18 16:01:15;;;;;;;11.37;4.40;;;21.00;99.90;;;;;;4909216;29;21026;-76
2022/10/18 16:03:43;;;;;;;8.17;4.63;;;21.00;99.90;;;;;;4910115;29;20958;-76
2022/10/18 16:06:11;;;;;;;4.80;4.00;;;21.00;99.90;;;;;;4909333;29;20463;-76
2022/10/18 16:08:41;;;;;;;6.07;4.07;;;20.90;99.90;;;;;;4910028;29;20459;-77
2022/10/18 16:11:12;;;;;;;5.10;4.43;;;20.90;99.90;;;;;;4911315;29;20486;-77
2022/10/18 16:13:39;;;;;;;5.67;3.70;;;20.80;99.90;;;;;;4910476;29;20447;-77
2022/10/18 16:16:06;;;;;;;4.80;4.10;;;20.80;99.90;;;;;;4909590;29;20463;-77
2022/10/18 16:18:33;;;;;;;4.70;4.00;;;20.80;99.90;;;;;;4910181;29;20474;-74
2022/10/18 16:21:00;;;;;;;5.20;3.87;;;20.80;99.90;;;;;;4910174;29;20483;-76
2022/10/18 16:23:28;;;;;;;8.10;4.30;;;20.70;99.90;;;;;;4910072;29;20651;-77
2022/10/18 16:25:56;;;;;;;5.67;4.00;;;20.70;99.90;;;;;;4909571;29;20834;-77
2022/10/18 16:28:24;;;;;;;6.73;4.10;;;20.70;99.90;;;;;;4909468;29;20495;-77
2022/10/18 16:30:55;;;;;;;8.27;3.70;;;20.70;99.90;;;;;;4909728;29;21052;-74
2022/10/18 16:33:22;;;;;;;6.40;4.20;;;20.60;99.90;;;;;;4910527;29;21144;-77
2022/10/18 16:35:49;;;;;;;4.40;3.97;;;20.60;99.90;;;;;;4911808;29;20479;-77
2022/10/18 16:38:29;;;;;;;5.80;4.30;;;20.60;99.90;;;;;;4910192;29;20480;-76
2022/10/18 16:40:57;;;;;;;4.60;3.90;;;20.50;99.90;;;;;;4909244;29;20479;-75
2022/10/18 16:43:24;;;;;;;6.30;4.50;;;20.50;99.90;;;;;;4909767;29;20987;-76
2022/10/18 16:45:52;;;;;;;4.90;4.40;;;20.50;99.90;;;;;;4908395;29;20475;-73
2022/10/18 16:48:21;;;;;;;10.60;4.67;;;20.50;99.90;;;;;;4909480;29;20495;-77
2022/10/18 16:50:48;;;;;;;7.50;4.00;;;20.40;99.90;;;;;;4909190;29;20479;-76
2022/10/18 16:53:15;;;;;;;4.70;4.20;;;20.40;99.90;;;;;;4909034;29;20463;-75
2022/10/18 16:55:42;;;;;;;8.83;4.50;;;20.30;99.90;;;;;;4912462;29;20974;-76
2022/10/18 16:58:16;;;;;;;8.70;4.67;;;20.30;99.90;;;;;;4917520;29;20466;-78
2022/10/18 17:00:45;;;;;;;10.07;4.53;;;20.30;99.90;;;;;;4915680;29;20516;-75
2022/10/18 17:03:12;;;;;;;5.07;4.57;;;20.30;99.90;;;;;;4915710;29;20469;-76
2022/10/18 17:05:39;;;;;;;6.77;4.40;;;20.20;99.90;;;;;;4914740;29;20466;-75
2022/10/18 17:08:06;;;;;;;8.13;4.13;;;20.20;99.90;;;;;;4915783;29;20824;-74